Time;durP1;ratioP1;P1;durP2;ratioP2;P2;SDS_P1;SDS_P2;PMS_P1;PMS_P2;Temp;Humidity;BMP_temperature;BMP_pressure;BME280_temperature;BME280_humidity;BME280_pressure;Samples;Min_cycle;Max_cycle;Signal;HPM_P1;HPM_P2
2022/03/26 00:01:33;;;;;;;66.47;50.00;;;;;;;;;;4848346;29;20107;-91
2022/03/26 00:03:59;;;;;;;67.43;52.10;;;;;;;;;;4840802;29;20058;-89
2022/03/26 00:06:25;;;;;;;64.32;50.15;;;;;;;;;;4837575;29;20061;-94
2022/03/26 00:08:51;;;;;;;72.05;52.53;;;;;;;;;;4841121;29;20029;-86
2022/03/26 00:11:17;;;;;;;72.20;52.85;;;;;;;;;;4973232;24;20472;-90
2022/03/26 00:13:43;;;;;;;69.25;50.90;;;;;;;;;;4833909;29;20050;-83
2022/03/26 00:16:10;;;;;;;63.42;49.55;;;;;;;;;;4814895;29;20053;-94
2022/03/26 00:18:36;;;;;;;77.20;54.05;;;;;;;;;;4819663;29;20085;-93
2022/03/26 00:21:02;;;;;;;74.60;53.95;;;;;;;;;;4829421;29;20094;-88
2022/03/26 00:23:34;;;;;;;69.32;51.15;;;;;;;;;;4810066;29;20054;-88
2022/03/26 00:26:00;;;;;;;72.75;54.72;;;;;;;;;;4828210;29;20038;-87
2022/03/26 00:28:39;;;;;;;;;;;;;;;;;;;;;
2022/03/26 00:31:05;;;;;;;72.45;54.70;;;;;;;;;;4804029;29;20062;-86
2022/03/26 00:33:32;;;;;;;76.68;55.28;;;;;;;;;;4820045;29;20133;-87
2022/03/26 00:36:16;;;;;;;76.93;54.75;;;;;;;;;;4831704;29;20058;-88
2022/03/26 00:38:42;;;;;;;74.15;52.40;;;;;;;;;;4825985;29;20119;-88
2022/03/26 00:41:28;;;;;;;72.65;53.28;;;;;;;;;;4824917;29;20038;-90
2022/03/26 00:43:54;;;;;;;74.10;54.42;;;;;;;;;;4809967;29;20415;-90
2022/03/26 00:46:30;;;;;;;73.88;54.03;;;;;;;;;;4806129;29;20046;-90
2022/03/26 00:48:56;;;;;;;78.32;54.50;;;;;;;;;;4820441;29;20466;-87
2022/03/26 00:51:22;;;;;;;70.97;53.10;;;;;;;;;;4803892;29;20070;-89
2022/03/26 00:53:57;;;;;;;76.28;53.53;;;;;;;;;;4821447;29;20065;-89
2022/03/26 00:56:23;;;;;;;73.10;53.03;;;;;;;;;;4826018;29;20439;-88
2022/03/26 00:58:49;;;;;;;69.00;51.92;;;;;;;;;;4808105;29;20107;-90
2022/03/26 01:01:25;;;;;;;66.30;51.55;;;;;;;;;;4807836;29;20054;-91
2022/03/26 01:03:53;;;;;;;73.22;52.72;;;;;;;;;;4820062;29;20119;-91
2022/03/26 01:06:19;;;;;;;77.80;54.78;;;;;;;;;;4821558;29;20150;-91
2022/03/26 01:08:46;;;;;;;74.22;52.88;;;;;;;;;;4805764;29;20752;-88
2022/03/26 01:11:12;;;;;;;68.18;51.05;;;;;;;;;;4799862;29;20115;-89
2022/03/26 01:13:39;;;;;;;71.55;50.72;;;;;;;;;;4803070;29;20977;-90
2022/03/26 01:16:08;;;;;;;70.38;52.65;;;;;;;;;;4802468;29;20055;-89
2022/03/26 01:18:34;;;;;;;69.82;51.65;;;;;;;;;;4814140;29;20050;-89
2022/03/26 01:21:00;;;;;;;68.88;51.53;;;;;;;;;;4807932;29;20076;-90
2022/03/26 01:23:27;;;;;;;69.15;51.53;;;;;;;;;;4804438;29;20058;-89
2022/03/26 01:25:53;;;;;;;66.53;49.67;;;;;;;;;;4806969;29;20047;-89
2022/03/26 01:28:19;;;;;;;68.28;49.88;;;;;;;;;;4798284;29;20050;-89
2022/03/26 01:30:46;;;;;;;67.43;49.85;;;;;;;;;;4806401;29;20047;-89
2022/03/26 01:33:12;;;;;;;65.47;49.17;;;;;;;;;;4794018;29;20466;-89
2022/03/26 01:35:38;;;;;;;67.13;50.78;;;;;;;;;;4805961;29;20404;-89
2022/03/26 01:38:05;;;;;;;68.28;49.92;;;;;;;;;;4806452;29;20057;-89
2022/03/26 01:40:34;;;;;;;64.35;49.72;;;;;;;;;;4805477;29;20567;-89
2022/03/26 01:43:01;;;;;;;66.55;48.63;;;;;;;;;;4802117;29;20082;-88
2022/03/26 01:45:27;;;;;;;63.88;48.83;;;;;;;;;;4802819;29;20118;-88
2022/03/26 01:47:54;;;;;;;66.32;48.95;;;;;;;;;;4800575;29;20515;-88
2022/03/26 01:50:22;;;;;;;66.78;50.45;;;;;;;;;;4804700;29;20050;-89
2022/03/26 01:52:49;;;;;;;68.80;49.67;;;;;;;;;;4805588;29;20099;-88
2022/03/26 01:55:15;;;;;;;68.82;50.83;;;;;;;;;;4805489;29;20552;-88
2022/03/26 01:57:41;;;;;;;66.53;49.03;;;;;;;;;;4804552;29;20059;-90
2022/03/26 02:00:08;;;;;;;66.13;47.60;;;;;;;;;;4805746;29;20051;-90
2022/03/26 02:02:34;;;;;;;72.22;50.50;;;;;;;;;;4805849;29;20066;-90
2022/03/26 02:05:00;;;;;;;65.13;49.00;;;;;;;;;;4820293;29;20110;-89
2022/03/26 02:07:26;;;;;;;63.58;48.17;;;;;;;;;;4804666;29;20116;-89
2022/03/26 02:09:52;;;;;;;64.22;47.33;;;;;;;;;;4807721;29;20551;-88
2022/03/26 02:12:22;;;;;;;67.43;48.38;;;;;;;;;;4798864;29;20157;-89
2022/03/26 02:14:49;;;;;;;69.38;49.85;;;;;;;;;;4800174;29;20055;-89
2022/03/26 02:17:17;;;;;;;67.50;49.83;;;;;;;;;;4822229;29;20130;-88
2022/03/26 02:19:47;;;;;;;68.80;49.33;;;;;;;;;;4825098;29;20047;-88
2022/03/26 02:22:13;;;;;;;62.80;48.28;;;;;;;;;;4820520;29;20512;-89
2022/03/26 02:24:40;;;;;;;62.90;48.33;;;;;;;;;;4806471;29;20054;-90
2022/03/26 02:27:09;;;;;;;66.97;49.58;;;;;;;;;;4805290;29;20115;-89
2022/03/26 02:29:35;;;;;;;67.10;50.00;;;;;;;;;;4801297;29;20049;-89
2022/03/26 02:32:01;;;;;;;66.28;49.88;;;;;;;;;;4803672;29;20047;-89
2022/03/26 02:34:27;;;;;;;66.88;48.95;;;;;;;;;;4801708;29;20108;-89
2022/03/26 02:36:57;;;;;;;67.45;48.83;;;;;;;;;;4801317;29;20188;-88
2022/03/26 02:39:23;;;;;;;64.35;47.70;;;;;;;;;;4804980;29;20141;-88
2022/03/26 02:41:49;;;;;;;62.67;46.22;;;;;;;;;;4805655;29;20047;-89
2022/03/26 02:44:15;;;;;;;64.75;46.33;;;;;;;;;;4806513;29;20084;-89
2022/03/26 02:46:43;;;;;;;69.57;50.10;;;;;;;;;;4803418;29;20042;-86
2022/03/26 02:49:09;;;;;;;71.43;50.13;;;;;;;;;;4805252;29;20065;-88
2022/03/26 02:51:35;;;;;;;65.93;47.67;;;;;;;;;;4816321;29;20511;-88
2022/03/26 02:54:01;;;;;;;66.10;47.85;;;;;;;;;;4806758;29;20043;-88
2022/03/26 02:56:27;;;;;;;68.13;49.63;;;;;;;;;;4805336;29;20082;-90
2022/03/26 02:58:53;;;;;;;66.07;49.00;;;;;;;;;;4803639;29;20492;-88
2022/03/26 03:01:20;;;;;;;67.40;48.75;;;;;;;;;;4804692;29;20047;-89
2022/03/26 03:03:46;;;;;;;68.88;48.33;;;;;;;;;;4804286;29;20043;-89
2022/03/26 03:06:15;;;;;;;60.80;46.10;;;;;;;;;;4807046;29;20099;-89
2022/03/26 03:08:41;;;;;;;63.83;46.90;;;;;;;;;;4807461;29;20092;-89
2022/03/26 03:11:08;;;;;;;69.97;47.97;;;;;;;;;;4805982;29;20062;-89
2022/03/26 03:13:34;;;;;;;63.28;47.65;;;;;;;;;;4804431;29;20058;-88
2022/03/26 03:16:00;;;;;;;67.80;48.13;;;;;;;;;;4807631;29;20126;-88
2022/03/26 03:18:26;;;;;;;67.38;47.58;;;;;;;;;;4806534;29;20061;-87
2022/03/26 03:20:52;;;;;;;68.28;49.67;;;;;;;;;;4807262;29;20131;-88
2022/03/26 03:23:18;;;;;;;67.53;48.47;;;;;;;;;;4804973;29;20047;-88
2022/03/26 03:25:45;;;;;;;65.00;48.72;;;;;;;;;;4808118;29;20047;-89
2022/03/26 03:28:11;;;;;;;61.50;46.17;;;;;;;;;;4808815;29;20062;-88
2022/03/26 03:30:37;;;;;;;65.75;47.28;;;;;;;;;;4804690;29;20055;-89
2022/03/26 03:33:03;;;;;;;62.83;47.10;;;;;;;;;;4804264;29;20055;-89
2022/03/26 03:35:29;;;;;;;67.97;49.40;;;;;;;;;;4806635;29;20089;-90
2022/03/26 03:37:55;;;;;;;67.53;48.50;;;;;;;;;;4819656;29;20058;-86
2022/03/26 03:40:21;;;;;;;63.63;48.20;;;;;;;;;;4811164;29;20070;-89
2022/03/26 03:42:50;;;;;;;64.80;47.25;;;;;;;;;;4806943;29;20584;-90
2022/03/26 03:45:16;;;;;;;64.47;45.72;;;;;;;;;;4801478;29;20051;-90
2022/03/26 03:47:42;;;;;;;72.72;50.78;;;;;;;;;;4808930;29;20043;-88
2022/03/26 03:50:08;;;;;;;66.57;48.13;;;;;;;;;;4804504;29;20123;-88
2022/03/26 03:52:34;;;;;;;67.40;48.97;;;;;;;;;;4804277;29;20054;-88
2022/03/26 03:55:00;;;;;;;67.18;47.80;;;;;;;;;;4806658;29;20060;-88
2022/03/26 03:57:26;;;;;;;69.53;48.15;;;;;;;;;;4807439;29;20192;-89
2022/03/26 03:59:52;;;;;;;69.15;50.65;;;;;;;;;;4805387;29;20047;-89
2022/03/26 04:02:24;;;;;;;69.63;50.33;;;;;;;;;;4805555;29;20039;-89
2022/03/26 04:04:50;;;;;;;69.30;49.00;;;;;;;;;;4804952;29;20047;-89
2022/03/26 04:07:17;;;;;;;67.13;47.88;;;;;;;;;;4798500;29;20047;-90
2022/03/26 04:09:43;;;;;;;63.47;46.45;;;;;;;;;;4803115;29;20054;-89
2022/03/26 04:12:09;;;;;;;65.82;48.42;;;;;;;;;;4804373;29;20067;-89
2022/03/26 04:14:38;;;;;;;70.68;49.42;;;;;;;;;;4813736;29;20054;-89
2022/03/26 04:17:05;;;;;;;67.03;49.40;;;;;;;;;;4806424;29;20050;-89
2022/03/26 04:19:31;;;;;;;73.88;51.08;;;;;;;;;;4805885;29;20053;-88
2022/03/26 04:21:57;;;;;;;73.65;51.88;;;;;;;;;;4806645;29;20047;-87
2022/03/26 04:24:23;;;;;;;72.57;51.97;;;;;;;;;;4816802;29;20055;-88
2022/03/26 04:26:49;;;;;;;77.65;53.25;;;;;;;;;;4808858;29;20046;-89
2022/03/26 04:29:15;;;;;;;74.93;52.95;;;;;;;;;;4811342;29;20061;-89
2022/03/26 04:31:41;;;;;;;77.00;53.25;;;;;;;;;;4812602;29;20084;-89
2022/03/26 04:34:07;;;;;;;73.63;52.40;;;;;;;;;;4829315;29;20083;-89
2022/03/26 04:36:34;;;;;;;70.80;50.85;;;;;;;;;;4825541;29;20041;-88
2022/03/26 04:39:00;;;;;;;74.03;51.90;;;;;;;;;;4816289;29;20118;-89
2022/03/26 04:41:28;;;;;;;71.43;51.50;;;;;;;;;;4807147;29;20051;-88
2022/03/26 04:43:57;;;;;;;74.03;52.45;;;;;;;;;;4807028;29;20211;-87
2022/03/26 04:46:23;;;;;;;80.30;56.58;;;;;;;;;;4797583;29;20667;-89
2022/03/26 04:48:49;;;;;;;77.57;53.35;;;;;;;;;;4803136;29;20046;-87
2022/03/26 04:51:15;;;;;;;71.32;50.80;;;;;;;;;;4805322;29;20053;-87
2022/03/26 04:53:41;;;;;;;75.38;54.03;;;;;;;;;;4799421;29;20058;-87
2022/03/26 04:56:07;;;;;;;73.55;53.88;;;;;;;;;;4803551;29;20119;-87
2022/03/26 04:58:36;;;;;;;75.43;52.95;;;;;;;;;;4804366;29;20134;-88
2022/03/26 05:01:02;;;;;;;77.88;53.90;;;;;;;;;;4802777;29;20133;-87
2022/03/26 05:03:29;;;;;;;74.95;53.08;;;;;;;;;;4797874;29;20074;-87
2022/03/26 05:05:55;;;;;;;73.82;53.97;;;;;;;;;;4807536;29;20047;-86
2022/03/26 05:08:21;;;;;;;71.25;51.65;;;;;;;;;;4812332;29;20069;-87
2022/03/26 05:10:50;;;;;;;72.10;52.30;;;;;;;;;;4813644;29;20064;-87
2022/03/26 05:13:16;;;;;;;73.82;54.10;;;;;;;;;;4806333;29;20098;-87
2022/03/26 05:15:42;;;;;;;77.22;55.13;;;;;;;;;;4806540;29;20203;-88
2022/03/26 05:18:08;;;;;;;75.15;51.15;;;;;;;;;;4803818;29;20552;-87
2022/03/26 05:20:37;;;;;;;71.53;51.42;;;;;;;;;;4791030;29;20399;-88
2022/03/26 05:23:05;;;;;;;68.43;50.38;;;;;;;;;;4791430;29;20047;-87
2022/03/26 05:25:31;;;;;;;69.25;50.40;;;;;;;;;;4805133;29;20054;-87
2022/03/26 05:27:58;;;;;;;70.22;51.92;;;;;;;;;;4806859;29;20050;-88
2022/03/26 05:30:24;;;;;;;73.95;51.70;;;;;;;;;;4807420;29;20144;-87
2022/03/26 05:33:11;;;;;;;68.28;49.47;;;;;;;;;;4807010;29;20516;-86
2022/03/26 05:35:37;;;;;;;68.47;50.35;;;;;;;;;;4800758;29;20124;-87
2022/03/26 05:38:04;;;;;;;73.25;51.70;;;;;;;;;;4806091;29;20408;-89
2022/03/26 05:40:30;;;;;;;73.80;50.97;;;;;;;;;;4802914;29;20104;-87
2022/03/26 05:42:56;;;;;;;78.45;55.25;;;;;;;;;;4806513;29;20051;-87
2022/03/26 05:45:22;;;;;;;67.63;49.53;;;;;;;;;;4806825;29;20561;-88
2022/03/26 05:47:49;;;;;;;70.40;51.38;;;;;;;;;;4806958;29;20055;-88
2022/03/26 05:50:15;;;;;;;70.30;51.78;;;;;;;;;;4803118;29;20039;-87
2022/03/26 05:52:41;;;;;;;69.35;51.15;;;;;;;;;;4804639;29;20065;-86
2022/03/26 05:55:08;;;;;;;70.40;50.30;;;;;;;;;;4820193;29;20094;-86
2022/03/26 05:57:34;;;;;;;74.43;51.03;;;;;;;;;;4811153;29;20046;-87
2022/03/26 06:00:00;;;;;;;68.60;49.33;;;;;;;;;;4805819;29;20071;-87
2022/03/26 06:02:29;;;;;;;68.38;49.53;;;;;;;;;;4804532;29;20699;-87
2022/03/26 06:04:55;;;;;;;70.22;49.47;;;;;;;;;;4806252;29;20043;-87
2022/03/26 06:07:21;;;;;;;71.15;50.67;;;;;;;;;;4807580;29;20138;-88
2022/03/26 06:09:47;;;;;;;70.80;49.40;;;;;;;;;;4800548;29;20137;-85
2022/03/26 06:12:13;;;;;;;70.25;49.35;;;;;;;;;;4803760;29;20485;-87
2022/03/26 06:15:03;;;;;;;68.60;47.50;;;;;;;;;;4803644;29;20061;-87
2022/03/26 06:17:29;;;;;;;68.13;47.65;;;;;;;;;;4804767;29;20095;-87
2022/03/26 06:19:55;;;;;;;73.60;50.35;;;;;;;;;;4805446;29;20043;-87
2022/03/26 06:22:21;;;;;;;77.00;51.17;;;;;;;;;;4805054;29;20142;-87
2022/03/26 06:24:47;;;;;;;76.05;50.80;;;;;;;;;;4804280;29;20072;-88
2022/03/26 06:27:15;;;;;;;72.65;49.20;;;;;;;;;;4804729;29;20051;-87
2022/03/26 06:29:41;;;;;;;72.60;49.63;;;;;;;;;;4801635;29;20070;-87
2022/03/26 06:32:07;;;;;;;75.78;51.22;;;;;;;;;;4800166;29;20080;-87
2022/03/26 06:34:33;;;;;;;75.85;48.22;;;;;;;;;;4802024;29;20526;-86
2022/03/26 06:36:59;;;;;;;77.05;47.38;;;;;;;;;;4802075;29;20035;-87
2022/03/26 06:39:26;;;;;;;74.38;48.72;;;;;;;;;;4812584;29;20071;-87
2022/03/26 06:41:53;;;;;;;71.85;47.78;;;;;;;;;;4809212;29;20039;-87
2022/03/26 06:44:19;;;;;;;74.85;48.22;;;;;;;;;;4806515;29;20500;-88
2022/03/26 06:46:45;;;;;;;75.95;48.58;;;;;;;;;;4817240;29;20099;-85
2022/03/26 06:49:13;;;;;;;78.32;50.65;;;;;;;;;;4819263;29;20095;-86
2022/03/26 06:51:39;;;;;;;71.28;50.40;;;;;;;;;;4819977;29;20041;-86
2022/03/26 06:54:05;;;;;;;77.40;50.22;;;;;;;;;;4802433;29;20054;-86
2022/03/26 06:56:33;;;;;;;73.38;50.67;;;;;;;;;;4807147;29;20137;-85
2022/03/26 06:58:59;;;;;;;82.63;52.30;;;;;;;;;;4799338;29;20112;-86
2022/03/26 07:01:25;;;;;;;74.97;50.38;;;;;;;;;;4804127;29;20051;-87
2022/03/26 07:03:52;;;;;;;75.97;51.45;;;;;;;;;;4805174;29;20481;-89
2022/03/26 07:06:19;;;;;;;77.70;53.10;;;;;;;;;;4803266;29;20043;-86
2022/03/26 07:08:46;;;;;;;78.10;52.00;;;;;;;;;;4801755;29;20110;-87
2022/03/26 07:11:11;;;;;;;75.30;51.83;;;;;;;;;;4804353;29;20356;-87
2022/03/26 07:13:41;;;;;;;73.68;51.78;;;;;;;;;;4807037;29;20441;-88
2022/03/26 07:16:07;;;;;;;75.97;52.20;;;;;;;;;;4806507;29;20106;-88
2022/03/26 07:18:34;;;;;;;71.50;50.97;;;;;;;;;;4808110;29;20078;-88
2022/03/26 07:21:00;;;;;;;74.18;51.28;;;;;;;;;;4814673;29;20051;-87
2022/03/26 07:23:27;;;;;;;68.60;49.72;;;;;;;;;;4804786;29;20088;-87
2022/03/26 07:25:55;;;;;;;69.78;51.38;;;;;;;;;;4806224;29;20055;-86
2022/03/26 07:28:21;;;;;;;70.13;51.13;;;;;;;;;;4806479;29;20059;-87
2022/03/26 07:30:47;;;;;;;72.28;48.88;;;;;;;;;;4804987;29;20049;-86
2022/03/26 07:33:13;;;;;;;70.40;50.22;;;;;;;;;;4801844;29;20058;-87
2022/03/26 07:35:39;;;;;;;70.95;49.22;;;;;;;;;;4807259;29;20042;-87
2022/03/26 07:38:05;;;;;;;72.60;51.08;;;;;;;;;;4805993;29;20053;-85
2022/03/26 07:40:31;;;;;;;75.40;51.05;;;;;;;;;;4806123;29;20057;-86
2022/03/26 07:42:57;;;;;;;71.38;50.53;;;;;;;;;;4805779;29;20118;-86
2022/03/26 07:45:26;;;;;;;69.47;48.65;;;;;;;;;;4806597;29;20511;-87
2022/03/26 07:47:56;;;;;;;73.97;50.13;;;;;;;;;;4805572;29;20046;-87
2022/03/26 07:50:22;;;;;;;69.22;47.88;;;;;;;;;;4805421;29;20058;-87
2022/03/26 07:52:48;;;;;;;67.28;49.10;;;;;;;;;;4788411;29;20101;-86
2022/03/26 07:55:14;;;;;;;68.20;48.33;;;;;;;;;;4805646;29;20043;-87
2022/03/26 07:57:40;;;;;;;67.60;48.22;;;;;;;;;;4802501;29;20401;-87
2022/03/26 08:00:07;;;;;;;67.45;46.10;;;;;;;;;;4804213;29;20365;-88
2022/03/26 08:02:33;;;;;;;70.72;48.70;;;;;;;;;;4813347;29;20046;-87
2022/03/26 08:04:59;;;;;;;70.72;48.60;;;;;;;;;;4787006;29;20061;-87
2022/03/26 08:07:25;;;;;;;64.18;47.75;;;;;;;;;;4802188;29;20423;-88
2022/03/26 08:09:51;;;;;;;71.13;48.20;;;;;;;;;;4805619;29;20054;-85
2022/03/26 08:12:17;;;;;;;69.15;47.85;;;;;;;;;;4802324;29;20047;-86
2022/03/26 08:14:43;;;;;;;71.35;49.20;;;;;;;;;;4803706;29;20106;-87
2022/03/26 08:17:10;;;;;;;64.80;47.45;;;;;;;;;;4804290;29;20062;-87
2022/03/26 08:19:39;;;;;;;66.10;48.88;;;;;;;;;;4804605;29;20057;-88
2022/03/26 08:22:06;;;;;;;66.85;48.20;;;;;;;;;;4809599;29;20473;-90
2022/03/26 08:24:32;;;;;;;64.60;46.03;;;;;;;;;;4810869;29;20050;-90
2022/03/26 08:26:58;;;;;;;71.80;48.05;;;;;;;;;;4812043;29;20106;-90
2022/03/26 08:29:24;;;;;;;65.90;47.42;;;;;;;;;;4812886;29;20104;-87
2022/03/26 08:31:53;;;;;;;65.88;45.03;;;;;;;;;;4810712;29;20170;-89
2022/03/26 08:34:22;;;;;;;62.72;45.00;;;;;;;;;;4816637;29;20042;-89
2022/03/26 08:36:48;;;;;;;65.72;45.75;;;;;;;;;;4813219;29;20119;-90
2022/03/26 08:39:14;;;;;;;62.55;43.70;;;;;;;;;;4805035;29;20047;-90
2022/03/26 08:41:40;;;;;;;60.53;43.67;;;;;;;;;;4806743;29;20050;-89
2022/03/26 08:44:06;;;;;;;57.15;40.30;;;;;;;;;;4817819;29;20054;-91
2022/03/26 08:46:35;;;;;;;57.55;41.65;;;;;;;;;;4798220;29;20044;-89
2022/03/26 08:49:03;;;;;;;57.47;42.03;;;;;;;;;;4806166;29;20079;-91
2022/03/26 08:51:29;;;;;;;56.97;41.55;;;;;;;;;;4809537;29;20050;-89
2022/03/26 08:53:57;;;;;;;59.85;41.58;;;;;;;;;;4808002;29;20512;-91
2022/03/26 08:56:23;;;;;;;56.47;39.53;;;;;;;;;;4808499;29;20058;-89
2022/03/26 08:58:49;;;;;;;53.95;40.05;;;;;;;;;;4808916;29;20452;-90
2022/03/26 09:01:15;;;;;;;53.75;38.25;;;;;;;;;;4804768;29;20057;-90
2022/03/26 09:03:43;;;;;;;53.72;38.90;;;;;;;;;;4829194;29;20058;-90
2022/03/26 09:06:09;;;;;;;54.42;40.85;;;;;;;;;;4828312;29;20031;-87
2022/03/26 09:08:35;;;;;;;58.30;40.88;;;;;;;;;;4829593;29;20027;-91
2022/03/26 09:11:02;;;;;;;53.00;40.38;;;;;;;;;;4807741;29;20065;-92
2022/03/26 09:13:28;;;;;;;58.83;40.65;;;;;;;;;;4804534;29;20081;-88
2022/03/26 09:15:59;;;;;;;53.75;41.00;;;;;;;;;;4792059;29;20179;-90
2022/03/26 09:18:26;;;;;;;54.25;40.78;;;;;;;;;;4805367;29;20058;-88
2022/03/26 09:20:52;;;;;;;50.15;36.75;;;;;;;;;;4806625;29;20088;-87
2022/03/26 09:23:19;;;;;;;51.90;38.78;;;;;;;;;;4806172;29;20042;-88
2022/03/26 09:25:45;;;;;;;46.78;35.40;;;;;;;;;;4816377;29;20042;-87
2022/03/26 09:28:11;;;;;;;53.85;39.10;;;;;;;;;;4808920;29;20082;-88
2022/03/26 09:30:37;;;;;;;47.30;35.47;;;;;;;;;;4805586;29;20107;-87
2022/03/26 09:33:06;;;;;;;47.88;35.83;;;;;;;;;;4809007;29;20054;-87
2022/03/26 09:35:32;;;;;;;42.83;33.92;;;;;;;;;;4792558;29;20112;-87
2022/03/26 09:37:58;;;;;;;44.95;35.35;;;;;;;;;;4814027;29;20495;-89
2022/03/26 09:40:25;;;;;;;45.75;34.85;;;;;;;;;;4803184;29;20058;-90
2022/03/26 09:42:52;;;;;;;43.85;35.50;;;;;;;;;;4810119;29;20050;-90
2022/03/26 09:45:22;;;;;;;45.80;36.60;;;;;;;;;;4804789;29;20130;-89
2022/03/26 09:47:48;;;;;;;46.63;36.35;;;;;;;;;;4805320;29;20083;-88
2022/03/26 09:50:15;;;;;;;43.63;33.85;;;;;;;;;;4803387;29;20085;-90
2022/03/26 09:52:41;;;;;;;38.08;31.35;;;;;;;;;;4804082;29;20126;-89
2022/03/26 09:55:15;;;;;;;36.92;29.85;;;;;;;;;;4807931;29;20084;-88
2022/03/26 09:57:44;;;;;;;37.55;32.08;;;;;;;;;;4807697;29;20098;-91
2022/03/26 10:00:10;;;;;;;42.15;32.20;;;;;;;;;;4806569;29;20047;-89
2022/03/26 10:02:36;;;;;;;39.65;32.08;;;;;;;;;;4807771;29;20054;-90
2022/03/26 10:05:04;;;;;;;36.65;30.35;;;;;;;;;;4798166;29;20129;-89
2022/03/26 10:07:33;;;;;;;35.08;29.85;;;;;;;;;;4791468;29;20049;-90
2022/03/26 10:10:02;;;;;;;32.63;27.73;;;;;;;;;;4817916;29;20047;-90
2022/03/26 10:12:28;;;;;;;33.95;29.05;;;;;;;;;;4800159;29;20397;-91
2022/03/26 10:15:04;;;;;;;30.63;27.33;;;;;;;;;;4799213;29;20094;-90
2022/03/26 10:17:34;;;;;;;28.88;25.15;;;;;;;;;;4804202;29;20049;-91
2022/03/26 10:20:02;;;;;;;29.80;24.52;;;;;;;;;;4803013;29;20054;-89
2022/03/26 10:22:29;;;;;;;25.98;23.17;;;;;;;;;;4799562;29;20104;-90
2022/03/26 10:24:56;;;;;;;25.02;20.73;;;;;;;;;;4804394;29;20484;-90
2022/03/26 10:27:26;;;;;;;23.38;20.38;;;;;;;;;;4803258;29;20084;-88
2022/03/26 10:29:53;;;;;;;23.50;20.80;;;;;;;;;;4807096;29;20047;-88
2022/03/26 10:32:39;;;;;;;22.95;20.58;;;;;;;;;;4801483;29;20496;-87
2022/03/26 10:35:06;;;;;;;25.17;19.50;;;;;;;;;;4802730;29;20043;-87
2022/03/26 10:37:53;;;;;;;23.58;19.20;;;;;;;;;;4802361;29;20167;-88
2022/03/26 10:40:24;;;;;;;23.17;19.27;;;;;;;;;;4801631;29;20433;-88
2022/03/26 10:43:01;;;;;;;20.90;18.40;;;;;;;;;;4801471;29;20137;-88
2022/03/26 10:45:28;;;;;;;25.35;19.60;;;;;;;;;;4800735;29;20051;-89
2022/03/26 10:47:55;;;;;;;24.52;18.90;;;;;;;;;;4802816;29;20050;-88
2022/03/26 10:50:21;;;;;;;23.98;18.80;;;;;;;;;;4802600;29;20471;-88
2022/03/26 10:52:47;;;;;;;22.23;18.02;;;;;;;;;;4808279;29;20076;-88
2022/03/26 10:55:14;;;;;;;22.35;19.02;;;;;;;;;;4802317;29;20915;-88
2022/03/26 10:57:41;;;;;;;21.88;18.35;;;;;;;;;;4801314;29;20043;-89
2022/03/26 11:00:09;;;;;;;23.02;19.27;;;;;;;;;;4802297;29;20074;-89
2022/03/26 11:02:41;;;;;;;20.55;17.70;;;;;;;;;;4798008;29;20078;-88
2022/03/26 11:05:07;;;;;;;21.45;18.50;;;;;;;;;;4802791;29;20050;-88
2022/03/26 11:07:35;;;;;;;21.00;17.77;;;;;;;;;;4805401;29;20111;-87
2022/03/26 11:10:04;;;;;;;21.60;18.33;;;;;;;;;;4802324;29;20046;-87
2022/03/26 11:12:30;;;;;;;19.95;16.35;;;;;;;;;;4804859;29;20047;-88
2022/03/26 11:14:58;;;;;;;18.02;15.07;;;;;;;;;;4804843;29;20131;-87
2022/03/26 11:17:32;;;;;;;16.52;13.55;;;;;;;;;;4804237;29;20066;-88
2022/03/26 11:20:17;;;;;;;13.88;11.55;;;;;;;;;;4804310;29;20524;-87
2022/03/26 11:23:02;;;;;;;13.45;10.68;;;;;;;;;;4819288;29;20051;-87
2022/03/26 11:25:28;;;;;;;13.00;10.38;;;;;;;;;;4822316;29;20051;-88
2022/03/26 11:28:05;;;;;;;13.23;10.25;;;;;;;;;;4820499;29;20059;-89
2022/03/26 11:30:42;;;;;;;11.98;8.68;;;;;;;;;;4805668;29;20047;-88
2022/03/26 11:33:15;;;;;;;9.68;7.60;;;;;;;;;;4807111;29;20051;-89
2022/03/26 11:35:56;;;;;;;9.55;8.18;;;;;;;;;;4800462;29;20058;-88
2022/03/26 11:38:23;;;;;;;10.20;6.93;;;;;;;;;;4817273;29;20084;-89
2022/03/26 11:40:54;;;;;;;11.68;6.80;;;;;;;;;;4807981;29;20590;-88
2022/03/26 11:43:39;;;;;;;7.13;6.20;;;;;;;;;;4805991;29;20053;-89
2022/03/26 11:51:39;;;;;;;9.63;8.15;;;;;;;;;;4802784;29;20055;-87
2022/03/26 11:54:05;;;;;;;11.93;7.50;;;;;;;;;;4811910;29;20075;-86
2022/03/26 11:56:32;;;;;;;9.23;7.78;;;;;;;;;;4805839;29;20083;-86
2022/03/26 11:59:16;;;;;;;9.98;7.90;;;;;;;;;;4810022;24;20062;-86
2022/03/26 12:01:46;;;;;;;9.93;7.95;;;;;;;;;;4804077;29;20492;-87
2022/03/26 12:04:13;;;;;;;11.75;7.30;;;;;;;;;;4806251;29;20057;-87
2022/03/26 12:06:44;;;;;;;8.43;7.22;;;;;;;;;;4807455;29;20076;-85
2022/03/26 12:09:11;;;;;;;8.90;6.85;;;;;;;;;;4807057;29;20046;-85
2022/03/26 12:11:37;;;;;;;8.73;6.82;;;;;;;;;;4822123;29;20038;-89
2022/03/26 12:14:04;;;;;;;8.63;7.10;;;;;;;;;;4821835;29;20050;-86
2022/03/26 12:16:49;;;;;;;9.43;7.40;;;;;;;;;;4824218;29;20077;-90
2022/03/26 12:19:34;;;;;;;8.75;6.72;;;;;;;;;;4821053;29;20057;-83
2022/03/26 12:22:17;;;;;;;7.13;5.90;;;;;;;;;;4809265;29;20101;-84
2022/03/26 12:24:43;;;;;;;9.55;6.47;;;;;;;;;;4825024;29;20467;-86
2022/03/26 12:27:09;;;;;;;7.45;6.53;;;;;;;;;;4825440;29;20492;-85
2022/03/26 12:29:39;;;;;;;8.27;6.82;;;;;;;;;;4809359;29;20054;-84
2022/03/26 12:32:05;;;;;;;8.63;7.05;;;;;;;;;;4809464;29;20082;-84
2022/03/26 12:34:31;;;;;;;8.77;6.38;;;;;;;;;;4808586;29;20094;-84
2022/03/26 12:37:03;;;;;;;7.93;5.85;;;;;;;;;;4807915;29;20081;-83
2022/03/26 12:39:30;;;;;;;7.03;6.00;;;;;;;;;;4813764;29;20058;-84
2022/03/26 12:41:57;;;;;;;7.60;6.30;;;;;;;;;;4803467;29;20054;-84
2022/03/26 12:44:23;;;;;;;7.55;5.30;;;;;;;;;;4832332;29;20073;-85
2022/03/26 12:46:49;;;;;;;7.40;5.15;;;;;;;;;;4823334;29;20081;-85
2022/03/26 12:49:16;;;;;;;7.03;5.20;;;;;;;;;;4822839;29;20064;-84
2022/03/26 12:51:43;;;;;;;6.82;4.70;;;;;;;;;;4820803;29;20050;-84
2022/03/26 12:54:09;;;;;;;5.10;4.40;;;;;;;;;;4805670;29;20099;-85
2022/03/26 12:56:35;;;;;;;5.45;4.03;;;;;;;;;;4820823;29;20436;-84
2022/03/26 12:59:01;;;;;;;4.22;3.90;;;;;;;;;;4824981;29;20069;-85
2022/03/26 13:01:28;;;;;;;4.70;3.80;;;;;;;;;;4827242;29;20058;-86
2022/03/26 13:04:01;;;;;;;4.85;3.90;;;;;;;;;;4826524;29;20050;-87
2022/03/26 13:06:27;;;;;;;5.70;4.57;;;;;;;;;;4807366;29;20131;-85
2022/03/26 13:09:00;;;;;;;5.30;4.55;;;;;;;;;;4808079;29;20841;-86
2022/03/26 13:11:37;;;;;;;5.93;4.95;;;;;;;;;;4806735;29;20065;-86
2022/03/26 13:14:06;;;;;;;8.13;5.38;;;;;;;;;;4804317;29;20058;-85
2022/03/26 13:16:33;;;;;;;7.53;5.72;;;;;;;;;;4805205;29;20065;-86
2022/03/26 13:19:04;;;;;;;6.97;5.13;;;;;;;;;;4818088;29;20049;-86
2022/03/26 13:21:35;;;;;;;5.63;5.07;;;;;;;;;;4806910;29;20054;-86
2022/03/26 13:24:07;;;;;;;6.78;6.00;;;;;;;;;;4820495;29;20065;-86
2022/03/26 13:26:48;;;;;;;5.78;5.00;;;;;;;;;;4806416;29;20056;-86
2022/03/26 13:29:16;;;;;;;6.30;5.20;;;;;;;;;;4805906;29;20058;-87
2022/03/26 13:37:10;;;;;;;8.05;5.00;;;;;;;;;;4957922;23;20411;-86
2022/03/26 13:39:38;;;;;;;4.97;4.40;;;;;;;;;;4822380;29;20065;-85
2022/03/26 13:49:23;;;;;;;8.13;4.50;;;;;;;;;;4816475;24;20065;-88
2022/03/26 13:55:17;;;;;;;5.30;4.80;;;;;;;;;;4856290;23;20060;-87
2022/03/26 14:00:43;;;;;;;5.05;4.00;;;;;;;;;;4818525;23;20055;-87
2022/03/26 14:03:14;;;;;;;4.10;3.70;;;;;;;;;;4805815;29;20046;-87
2022/03/26 14:08:47;;;;;;;3.70;3.03;;;;;;;;;;4822119;23;20062;-85
2022/03/26 14:12:05;;;;;;;4.32;3.55;;;;;;;;;;4816947;29;20042;-85
2022/03/26 14:14:45;;;;;;;4.05;3.15;;;;;;;;;;4830857;29;20083;-86
2022/03/26 14:17:23;;;;;;;4.18;2.95;;;;;;;;;;4821520;29;20098;-87
2022/03/26 14:22:21;;;;;;;5.40;2.90;;;;;;;;;;4824413;24;20115;-86
2022/03/26 14:24:47;;;;;;;2.90;2.70;;;;;;;;;;4797655;29;20054;-88
2022/03/26 14:27:13;;;;;;;3.25;2.60;;;;;;;;;;4802968;29;20476;-88
2022/03/26 14:29:39;;;;;;;3.53;2.83;;;;;;;;;;4822873;29;20051;-86
2022/03/26 14:32:08;;;;;;;25.10;4.57;;;;;;;;;;4817454;24;20501;-86
2022/03/26 14:34:49;;;;;;;3.38;2.90;;;;;;;;;;4771856;30;20051;-86
2022/03/26 14:37:21;;;;;;;3.53;3.20;;;;;;;;;;4769534;30;20044;-86
2022/03/26 14:39:48;;;;;;;3.30;2.90;;;;;;;;;;4786629;24;20058;-86
2022/03/26 14:42:14;;;;;;;5.20;2.92;;;;;;;;;;4785987;29;20575;-86
2022/03/26 14:44:40;;;;;;;3.50;2.65;;;;;;;;;;4791563;29;20094;-87
2022/03/26 14:47:06;;;;;;;13.85;3.88;;;;;;;;;;4785145;29;20043;-88
2022/03/26 14:49:32;;;;;;;2.55;2.25;;;;;;;;;;4786311;29;20043;-87
2022/03/26 14:51:58;;;;;;;3.08;2.20;;;;;;;;;;4786584;29;20043;-87
2022/03/26 14:54:24;;;;;;;3.40;2.08;;;;;;;;;;4790935;29;20051;-87
2022/03/26 14:56:53;;;;;;;2.83;2.20;;;;;;;;;;4783541;29;20182;-87
2022/03/26 14:59:25;;;;;;;3.65;2.60;;;;;;;;;;4785135;29;20073;-89